Terminal Aerodrome Forecast
Issued by NWS

Home | Current Version | Previous Version | Text Only | Print | Product List | Glossary On
Versions: 1 2 3 4 5 6 7 8 9 10 11 12 13 14 15 16 17 18 19 20 21 22 23 24 25 26 27 28 29 30 31
374
FTUS43 KDTX 271407 AAA
TAFYIP
TAF AMD
KYIP 271407Z 2714/2812 21007KT P6SM SCT120 BKN250
     FM271600 19010KT P6SM SCT040 BKN200
     FM280100 18005KT P6SM SCT060 BKN200
     FM281000 17003KT 6SM BR SCT040 BKN200=

USA.gov is the U.S. government's official web portal to all federal, state and local government web resources and services.